Terminal Aerodrome Forecast
Issued by NWS

Home | Current Version | Previous Version | Text Only | Print | Product List | Glossary On
Versions: 1 2 3 4 5 6 7 8 9 10 11 12 13 14 15 16 17 18 19 20 21 22 23 24 25 26 27 28 29 30 31
000
FTUS43 KDDC 230541 AAB
TAFHYS
TAF AMD
KHYS 230541Z 2306/2406 06004KT 3SM BR OVC004
     FM230900 02004KT 1SM BR BKN002
     FM231100 01004KT 1/2SM FZFG OVC002
     FM231500 01005KT 4SM BR BKN003
     FM231900 06007KT P6SM BKN020=

USA.gov is the U.S. government's official web portal to all federal, state and local government web resources and services.